sensor_id;sensor_type;location;lat;lon;timestamp;P1;durP1;ratioP1;P2;durP2;ratioP2
4043;SDS011;2036;51.578;7.108;2022-09-09T00:04:42;483.43;;;441.67;;
4043;SDS011;2036;51.578;7.108;2022-09-09T00:07:39;621.33;;;568.47;;
4043;SDS011;2036;51.578;7.108;2022-09-09T00:10:20;580.70;;;530.27;;
4043;SDS011;2036;51.578;7.108;2022-09-09T00:16:32;578.47;;;529.60;;
4043;SDS011;2036;51.578;7.108;2022-09-09T00:22:14;499.77;;;457.33;;
4043;SDS011;2036;51.578;7.108;2022-09-09T00:24:56;542.43;;;496.50;;
4043;SDS011;2036;51.578;7.108;2022-09-09T00:27:47;620.77;;;566.80;;
4043;SDS011;2036;51.578;7.108;2022-09-09T00:30:19;578.60;;;531.80;;
4043;SDS011;2036;51.578;7.108;2022-09-09T00:32:58;714.10;;;656.70;;
4043;SDS011;2036;51.578;7.108;2022-09-09T00:35:34;616.27;;;567.67;;
4043;SDS011;2036;51.578;7.108;2022-09-09T00:38:15;585.60;;;537.60;;
4043;SDS011;2036;51.578;7.108;2022-09-09T00:41:08;587.23;;;539.07;;
4043;SDS011;2036;51.578;7.108;2022-09-09T00:58:24;708.40;;;651.00;;
4043;SDS011;2036;51.578;7.108;2022-09-09T01:00:53;562.10;;;517.40;;
4043;SDS011;2036;51.578;7.108;2022-09-09T01:06:20;568.17;;;522.83;;
4043;SDS011;2036;51.578;7.108;2022-09-09T01:11:50;572.20;;;528.53;;
4043;SDS011;2036;51.578;7.108;2022-09-09T01:14:39;558.23;;;513.43;;
4043;SDS011;2036;51.578;7.108;2022-09-09T01:17:20;564.20;;;518.17;;
4043;SDS011;2036;51.578;7.108;2022-09-09T01:28:08;598.97;;;551.90;;
4043;SDS011;2036;51.578;7.108;2022-09-09T01:30:43;622.20;;;572.43;;
4043;SDS011;2036;51.578;7.108;2022-09-09T01:33:14;647.40;;;594.27;;
4043;SDS011;2036;51.578;7.108;2022-09-09T01:38:25;683.63;;;629.67;;
4043;SDS011;2036;51.578;7.108;2022-09-09T01:40:53;697.33;;;643.67;;
4043;SDS011;2036;51.578;7.108;2022-09-09T01:43:19;714.00;;;658.13;;
4043;SDS011;2036;51.578;7.108;2022-09-09T01:45:47;712.40;;;659.70;;
4043;SDS011;2036;51.578;7.108;2022-09-09T01:48:18;714.40;;;660.23;;
4043;SDS011;2036;51.578;7.108;2022-09-09T01:50:46;685.50;;;633.73;;
4043;SDS011;2036;51.578;7.108;2022-09-09T01:53:12;657.13;;;607.67;;
4043;SDS011;2036;51.578;7.108;2022-09-09T01:55:42;679.80;;;628.27;;
4043;SDS011;2036;51.578;7.108;2022-09-09T01:58:32;694.70;;;640.07;;
4043;SDS011;2036;51.578;7.108;2022-09-09T02:04:44;700.67;;;649.83;;
4043;SDS011;2036;51.578;7.108;2022-09-09T02:13:26;599.20;;;552.80;;
4043;SDS011;2036;51.578;7.108;2022-09-09T02:18:44;632.10;;;583.67;;
4043;SDS011;2036;51.578;7.108;2022-09-09T02:21:30;628.43;;;580.73;;
4043;SDS011;2036;51.578;7.108;2022-09-09T02:24:03;646.27;;;596.33;;
4043;SDS011;2036;51.578;7.108;2022-09-09T02:26:37;686.23;;;633.70;;
4043;SDS011;2036;51.578;7.108;2022-09-09T02:29:12;634.63;;;585.37;;
4043;SDS011;2036;51.578;7.108;2022-09-09T02:31:52;608.73;;;560.57;;
4043;SDS011;2036;51.578;7.108;2022-09-09T02:34:21;663.70;;;612.83;;
4043;SDS011;2036;51.578;7.108;2022-09-09T02:36:49;649.20;;;599.67;;
4043;SDS011;2036;51.578;7.108;2022-09-09T02:39:18;674.00;;;621.53;;
4043;SDS011;2036;51.578;7.108;2022-09-09T02:41:44;680.97;;;629.63;;
4043;SDS011;2036;51.578;7.108;2022-09-09T02:44:14;708.53;;;656.33;;
4043;SDS011;2036;51.578;7.108;2022-09-09T02:55:59;701.40;;;651.07;;
4043;SDS011;2036;51.578;7.108;2022-09-09T02:58:37;703.07;;;649.97;;
4043;SDS011;2036;51.578;7.108;2022-09-09T03:01:04;673.10;;;621.13;;
4043;SDS011;2036;51.578;7.108;2022-09-09T03:03:30;689.23;;;637.90;;
4043;SDS011;2036;51.578;7.108;2022-09-09T03:05:56;708.20;;;654.70;;
4043;SDS011;2036;51.578;7.108;2022-09-09T03:08:22;658.97;;;607.07;;
4043;SDS011;2036;51.578;7.108;2022-09-09T03:10:48;655.10;;;605.20;;
4043;SDS011;2036;51.578;7.108;2022-09-09T03:13:14;629.13;;;581.67;;
4043;SDS011;2036;51.578;7.108;2022-09-09T03:15:40;679.27;;;626.17;;
4043;SDS011;2036;51.578;7.108;2022-09-09T03:18:08;707.30;;;654.63;;
4043;SDS011;2036;51.578;7.108;2022-09-09T03:20:34;727.53;;;673.57;;
4043;SDS011;2036;51.578;7.108;2022-09-09T03:23:00;714.27;;;659.87;;
4043;SDS011;2036;51.578;7.108;2022-09-09T03:25:27;755.13;;;696.00;;
4043;SDS011;2036;51.578;7.108;2022-09-09T03:27:53;777.43;;;720.60;;
4043;SDS011;2036;51.578;7.108;2022-09-09T03:30:26;666.03;;;617.10;;
4043;SDS011;2036;51.578;7.108;2022-09-09T03:32:53;692.57;;;640.10;;
4043;SDS011;2036;51.578;7.108;2022-09-09T03:35:20;738.23;;;682.00;;
4043;SDS011;2036;51.578;7.108;2022-09-09T03:37:46;708.33;;;655.83;;
4043;SDS011;2036;51.578;7.108;2022-09-09T03:40:12;724.27;;;670.93;;
4043;SDS011;2036;51.578;7.108;2022-09-09T03:42:38;733.17;;;677.67;;
4043;SDS011;2036;51.578;7.108;2022-09-09T03:45:08;672.17;;;623.30;;
4043;SDS011;2036;51.578;7.108;2022-09-09T03:47:37;654.73;;;604.23;;
4043;SDS011;2036;51.578;7.108;2022-09-09T03:50:03;741.37;;;684.40;;
4043;SDS011;2036;51.578;7.108;2022-09-09T03:52:34;760.57;;;702.80;;
4043;SDS011;2036;51.578;7.108;2022-09-09T03:55:04;774.87;;;718.30;;
4043;SDS011;2036;51.578;7.108;2022-09-09T03:57:31;847.07;;;786.30;;
4043;SDS011;2036;51.578;7.108;2022-09-09T03:59:59;785.30;;;726.93;;
4043;SDS011;2036;51.578;7.108;2022-09-09T04:02:31;791.13;;;732.97;;
4043;SDS011;2036;51.578;7.108;2022-09-09T04:04:57;860.73;;;798.67;;
4043;SDS011;2036;51.578;7.108;2022-09-09T04:07:24;815.67;;;755.33;;
4043;SDS011;2036;51.578;7.108;2022-09-09T04:09:52;808.97;;;748.93;;
4043;SDS011;2036;51.578;7.108;2022-09-09T04:12:19;817.13;;;756.50;;
4043;SDS011;2036;51.578;7.108;2022-09-09T04:14:45;797.07;;;740.20;;
4043;SDS011;2036;51.578;7.108;2022-09-09T04:17:11;787.00;;;729.23;;
4043;SDS011;2036;51.578;7.108;2022-09-09T04:19:37;860.90;;;797.63;;
4043;SDS011;2036;51.578;7.108;2022-09-09T04:22:03;854.17;;;793.00;;
4043;SDS011;2036;51.578;7.108;2022-09-09T04:24:30;867.37;;;804.43;;
4043;SDS011;2036;51.578;7.108;2022-09-09T04:26:55;873.63;;;808.87;;
4043;SDS011;2036;51.578;7.108;2022-09-09T04:29:21;855.00;;;792.43;;
4043;SDS011;2036;51.578;7.108;2022-09-09T04:31:47;846.67;;;785.40;;
4043;SDS011;2036;51.578;7.108;2022-09-09T04:34:13;841.13;;;779.93;;
4043;SDS011;2036;51.578;7.108;2022-09-09T04:36:38;782.57;;;724.60;;
4043;SDS011;2036;51.578;7.108;2022-09-09T04:39:05;868.00;;;805.17;;
4043;SDS011;2036;51.578;7.108;2022-09-09T04:41:32;805.77;;;746.17;;
4043;SDS011;2036;51.578;7.108;2022-09-09T04:43:58;860.43;;;797.33;;
4043;SDS011;2036;51.578;7.108;2022-09-09T04:46:25;843.87;;;782.40;;
4043;SDS011;2036;51.578;7.108;2022-09-09T04:48:51;832.23;;;772.20;;
4043;SDS011;2036;51.578;7.108;2022-09-09T04:51:18;827.23;;;766.73;;
4043;SDS011;2036;51.578;7.108;2022-09-09T04:53:46;824.07;;;763.20;;
4043;SDS011;2036;51.578;7.108;2022-09-09T04:56:13;801.13;;;742.83;;
4043;SDS011;2036;51.578;7.108;2022-09-09T04:58:41;825.83;;;766.57;;
4043;SDS011;2036;51.578;7.108;2022-09-09T05:01:20;773.90;;;717.57;;
4043;SDS011;2036;51.578;7.108;2022-09-09T05:03:49;788.70;;;730.60;;
4043;SDS011;2036;51.578;7.108;2022-09-09T05:06:17;804.83;;;746.77;;
4043;SDS011;2036;51.578;7.108;2022-09-09T05:08:46;794.10;;;735.33;;
4043;SDS011;2036;51.578;7.108;2022-09-09T05:14:08;858.53;;;795.67;;
4043;SDS011;2036;51.578;7.108;2022-09-09T05:16:36;836.17;;;775.93;;
4043;SDS011;2036;51.578;7.108;2022-09-09T05:19:02;852.47;;;790.80;;
4043;SDS011;2036;51.578;7.108;2022-09-09T05:21:29;807.20;;;749.87;;
4043;SDS011;2036;51.578;7.108;2022-09-09T05:23:56;841.53;;;779.37;;
4043;SDS011;2036;51.578;7.108;2022-09-09T05:26:23;852.83;;;789.23;;
4043;SDS011;2036;51.578;7.108;2022-09-09T05:28:49;867.50;;;804.27;;
4043;SDS011;2036;51.578;7.108;2022-09-09T05:31:19;868.70;;;806.03;;
4043;SDS011;2036;51.578;7.108;2022-09-09T05:33:56;868.80;;;804.70;;
4043;SDS011;2036;51.578;7.108;2022-09-09T05:36:22;819.07;;;758.37;;
4043;SDS011;2036;51.578;7.108;2022-09-09T05:38:55;861.60;;;800.00;;
4043;SDS011;2036;51.578;7.108;2022-09-09T05:41:21;834.10;;;773.50;;
4043;SDS011;2036;51.578;7.108;2022-09-09T05:43:49;827.53;;;768.33;;
4043;SDS011;2036;51.578;7.108;2022-09-09T05:46:22;846.13;;;784.17;;
4043;SDS011;2036;51.578;7.108;2022-09-09T05:48:53;825.63;;;765.57;;
4043;SDS011;2036;51.578;7.108;2022-09-09T05:51:25;843.67;;;782.10;;
4043;SDS011;2036;51.578;7.108;2022-09-09T05:54:05;836.83;;;774.53;;
4043;SDS011;2036;51.578;7.108;2022-09-09T05:56:31;849.93;;;787.07;;
4043;SDS011;2036;51.578;7.108;2022-09-09T05:58:57;804.63;;;744.50;;
4043;SDS011;2036;51.578;7.108;2022-09-09T06:01:25;844.07;;;783.57;;
4043;SDS011;2036;51.578;7.108;2022-09-09T06:04:01;817.63;;;757.47;;
4043;SDS011;2036;51.578;7.108;2022-09-09T06:06:35;818.83;;;758.97;;
4043;SDS011;2036;51.578;7.108;2022-09-09T06:09:05;841.30;;;778.43;;
4043;SDS011;2036;51.578;7.108;2022-09-09T06:11:35;842.30;;;781.40;;
4043;SDS011;2036;51.578;7.108;2022-09-09T06:14:04;792.60;;;732.73;;
4043;SDS011;2036;51.578;7.108;2022-09-09T06:16:31;824.73;;;763.97;;
4043;SDS011;2036;51.578;7.108;2022-09-09T06:18:58;819.87;;;758.60;;
4043;SDS011;2036;51.578;7.108;2022-09-09T06:21:35;815.03;;;754.17;;
4043;SDS011;2036;51.578;7.108;2022-09-09T06:24:03;838.00;;;775.93;;
4043;SDS011;2036;51.578;7.108;2022-09-09T06:26:31;829.73;;;767.40;;
4043;SDS011;2036;51.578;7.108;2022-09-09T06:29:03;835.07;;;771.97;;
4043;SDS011;2036;51.578;7.108;2022-09-09T06:31:30;865.47;;;802.13;;
4043;SDS011;2036;51.578;7.108;2022-09-09T06:34:00;837.47;;;775.47;;
4043;SDS011;2036;51.578;7.108;2022-09-09T06:36:32;838.97;;;777.13;;
4043;SDS011;2036;51.578;7.108;2022-09-09T06:39:02;792.80;;;733.93;;
4043;SDS011;2036;51.578;7.108;2022-09-09T06:41:31;812.40;;;751.17;;
4043;SDS011;2036;51.578;7.108;2022-09-09T06:43:59;808.53;;;748.87;;
4043;SDS011;2036;51.578;7.108;2022-09-09T06:46:26;843.90;;;782.30;;
4043;SDS011;2036;51.578;7.108;2022-09-09T06:48:57;821.83;;;761.73;;
4043;SDS011;2036;51.578;7.108;2022-09-09T06:51:32;836.10;;;775.83;;
4043;SDS011;2036;51.578;7.108;2022-09-09T06:54:03;827.40;;;768.20;;
4043;SDS011;2036;51.578;7.108;2022-09-09T06:56:34;826.97;;;767.77;;
4043;SDS011;2036;51.578;7.108;2022-09-09T06:59:04;790.90;;;733.77;;
4043;SDS011;2036;51.578;7.108;2022-09-09T07:01:36;813.07;;;754.30;;
4043;SDS011;2036;51.578;7.108;2022-09-09T07:04:17;812.07;;;753.37;;
4043;SDS011;2036;51.578;7.108;2022-09-09T07:06:45;808.20;;;749.03;;
4043;SDS011;2036;51.578;7.108;2022-09-09T07:09:14;795.37;;;737.27;;
4043;SDS011;2036;51.578;7.108;2022-09-09T07:11:43;812.23;;;754.20;;
4043;SDS011;2036;51.578;7.108;2022-09-09T07:14:14;795.07;;;737.60;;
4043;SDS011;2036;51.578;7.108;2022-09-09T07:16:42;800.83;;;741.13;;
4043;SDS011;2036;51.578;7.108;2022-09-09T07:19:11;801.40;;;743.30;;
4043;SDS011;2036;51.578;7.108;2022-09-09T07:21:39;851.97;;;790.57;;
4043;SDS011;2036;51.578;7.108;2022-09-09T07:24:06;825.17;;;764.97;;
4043;SDS011;2036;51.578;7.108;2022-09-09T07:26:35;798.80;;;740.20;;
4043;SDS011;2036;51.578;7.108;2022-09-09T07:29:03;834.90;;;773.60;;
4043;SDS011;2036;51.578;7.108;2022-09-09T07:31:35;856.87;;;794.63;;
4043;SDS011;2036;51.578;7.108;2022-09-09T07:34:04;829.00;;;768.83;;
4043;SDS011;2036;51.578;7.108;2022-09-09T07:36:33;859.37;;;796.97;;
4043;SDS011;2036;51.578;7.108;2022-09-09T07:39:08;851.80;;;789.73;;
4043;SDS011;2036;51.578;7.108;2022-09-09T07:41:43;821.93;;;759.70;;
4043;SDS011;2036;51.578;7.108;2022-09-09T07:44:14;812.57;;;752.77;;
4043;SDS011;2036;51.578;7.108;2022-09-09T07:46:44;858.40;;;794.47;;
4043;SDS011;2036;51.578;7.108;2022-09-09T07:49:10;866.33;;;801.60;;
4043;SDS011;2036;51.578;7.108;2022-09-09T07:51:41;819.60;;;759.40;;
4043;SDS011;2036;51.578;7.108;2022-09-09T07:54:12;856.20;;;793.43;;
4043;SDS011;2036;51.578;7.108;2022-09-09T07:56:46;811.40;;;752.70;;
4043;SDS011;2036;51.578;7.108;2022-09-09T07:59:12;854.00;;;791.63;;
4043;SDS011;2036;51.578;7.108;2022-09-09T08:01:41;834.77;;;774.50;;
4043;SDS011;2036;51.578;7.108;2022-09-09T08:04:15;805.40;;;748.20;;
4043;SDS011;2036;51.578;7.108;2022-09-09T08:06:45;767.47;;;711.90;;
4043;SDS011;2036;51.578;7.108;2022-09-09T08:09:17;682.73;;;632.17;;
4043;SDS011;2036;51.578;7.108;2022-09-09T08:11:44;706.30;;;655.03;;
4043;SDS011;2036;51.578;7.108;2022-09-09T08:14:11;713.67;;;662.20;;
4043;SDS011;2036;51.578;7.108;2022-09-09T08:16:42;732.93;;;678.13;;
4043;SDS011;2036;51.578;7.108;2022-09-09T08:19:11;766.27;;;710.00;;
4043;SDS011;2036;51.578;7.108;2022-09-09T08:21:40;722.43;;;668.87;;
4043;SDS011;2036;51.578;7.108;2022-09-09T08:24:08;684.57;;;633.50;;
4043;SDS011;2036;51.578;7.108;2022-09-09T08:26:41;664.30;;;614.77;;
4043;SDS011;2036;51.578;7.108;2022-09-09T08:29:10;623.87;;;576.87;;
4043;SDS011;2036;51.578;7.108;2022-09-09T08:31:40;629.97;;;582.20;;
4043;SDS011;2036;51.578;7.108;2022-09-09T08:34:10;539.07;;;499.07;;
4043;SDS011;2036;51.578;7.108;2022-09-09T08:36:41;552.90;;;512.00;;
4043;SDS011;2036;51.578;7.108;2022-09-09T08:39:10;630.27;;;583.27;;
4043;SDS011;2036;51.578;7.108;2022-09-09T08:51:06;536.13;;;496.03;;
4043;SDS011;2036;51.578;7.108;2022-09-09T08:53:37;512.37;;;474.73;;
4043;SDS011;2036;51.578;7.108;2022-09-09T08:56:16;488.87;;;452.07;;
4043;SDS011;2036;51.578;7.108;2022-09-09T08:58:48;467.77;;;431.27;;
4043;SDS011;2036;51.578;7.108;2022-09-09T09:11:07;338.77;;;310.53;;
4043;SDS011;2036;51.578;7.108;2022-09-09T09:16:10;342.63;;;314.90;;
4043;SDS011;2036;51.578;7.108;2022-09-09T09:18:41;333.23;;;306.53;;
4043;SDS011;2036;51.578;7.108;2022-09-09T09:21:15;366.33;;;337.00;;
4043;SDS011;2036;51.578;7.108;2022-09-09T09:24:05;362.40;;;334.20;;
4043;SDS011;2036;51.578;7.108;2022-09-09T09:27:18;302.23;;;276.73;;
4043;SDS011;2036;51.578;7.108;2022-09-09T09:29:59;362.63;;;334.67;;
4043;SDS011;2036;51.578;7.108;2022-09-09T09:32:43;404.57;;;374.73;;
4043;SDS011;2036;51.578;7.108;2022-09-09T09:35:26;356.73;;;329.63;;
4043;SDS011;2036;51.578;7.108;2022-09-09T09:37:51;445.97;;;413.30;;
4043;SDS011;2036;51.578;7.108;2022-09-09T09:40:19;464.27;;;430.23;;
4043;SDS011;2036;51.578;7.108;2022-09-09T09:43:16;464.13;;;430.23;;
4043;SDS011;2036;51.578;7.108;2022-09-09T09:45:54;350.63;;;323.60;;
4043;SDS011;2036;51.578;7.108;2022-09-09T09:48:20;394.17;;;364.63;;
4043;SDS011;2036;51.578;7.108;2022-09-09T09:50:47;420.70;;;389.53;;
4043;SDS011;2036;51.578;7.108;2022-09-09T09:53:20;403.83;;;373.50;;
4043;SDS011;2036;51.578;7.108;2022-09-09T09:58:29;370.20;;;340.23;;
4043;SDS011;2036;51.578;7.108;2022-09-09T10:00:59;483.63;;;446.70;;
4043;SDS011;2036;51.578;7.108;2022-09-09T10:05:54;456.33;;;421.57;;
4043;SDS011;2036;51.578;7.108;2022-09-09T10:08:21;443.20;;;409.40;;
4043;SDS011;2036;51.578;7.108;2022-09-09T10:10:52;445.13;;;411.30;;
4043;SDS011;2036;51.578;7.108;2022-09-09T10:13:54;436.03;;;402.87;;
4043;SDS011;2036;51.578;7.108;2022-09-09T10:16:49;419.90;;;387.30;;
4043;SDS011;2036;51.578;7.108;2022-09-09T10:22:58;442.87;;;409.73;;
4043;SDS011;2036;51.578;7.108;2022-09-09T10:26:47;413.27;;;381.83;;
4043;SDS011;2036;51.578;7.108;2022-09-09T10:38:40;431.23;;;398.37;;
4043;SDS011;2036;51.578;7.108;2022-09-09T10:55:19;228.13;;;205.63;;
4043;SDS011;2036;51.578;7.108;2022-09-09T10:57:56;265.40;;;241.77;;
4043;SDS011;2036;51.578;7.108;2022-09-09T11:00:30;217.60;;;196.23;;
4043;SDS011;2036;51.578;7.108;2022-09-09T11:03:05;369.50;;;340.20;;
4043;SDS011;2036;51.578;7.108;2022-09-09T11:08:18;415.37;;;383.47;;
4043;SDS011;2036;51.578;7.108;2022-09-09T11:11:04;351.93;;;324.30;;
4043;SDS011;2036;51.578;7.108;2022-09-09T11:14:22;375.13;;;346.10;;
4043;SDS011;2036;51.578;7.108;2022-09-09T11:17:15;300.67;;;275.50;;
4043;SDS011;2036;51.578;7.108;2022-09-09T11:19:46;367.47;;;339.37;;
4043;SDS011;2036;51.578;7.108;2022-09-09T11:22:23;438.13;;;404.77;;
4043;SDS011;2036;51.578;7.108;2022-09-09T11:25:16;408.03;;;377.17;;
4043;SDS011;2036;51.578;7.108;2022-09-09T11:36:38;367.80;;;338.73;;
4043;SDS011;2036;51.578;7.108;2022-09-09T11:44:49;349.13;;;321.23;;
4043;SDS011;2036;51.578;7.108;2022-09-09T11:47:21;398.73;;;368.50;;
4043;SDS011;2036;51.578;7.108;2022-09-09T11:52:42;408.73;;;377.83;;
4043;SDS011;2036;51.578;7.108;2022-09-09T11:55:19;388.10;;;357.60;;
4043;SDS011;2036;51.578;7.108;2022-09-09T11:58:02;396.43;;;365.67;;
4043;SDS011;2036;51.578;7.108;2022-09-09T12:08:58;392.90;;;362.23;;
4043;SDS011;2036;51.578;7.108;2022-09-09T12:17:25;429.57;;;397.17;;
4043;SDS011;2036;51.578;7.108;2022-09-09T12:22:39;566.63;;;520.50;;
4043;SDS011;2036;51.578;7.108;2022-09-09T12:28:11;730.80;;;674.57;;
4043;SDS011;2036;51.578;7.108;2022-09-09T12:30:58;578.90;;;528.63;;
4043;SDS011;2036;51.578;7.108;2022-09-09T12:33:42;457.03;;;411.87;;
4043;SDS011;2036;51.578;7.108;2022-09-09T12:36:16;684.33;;;628.67;;
4043;SDS011;2036;51.578;7.108;2022-09-09T12:38:50;636.90;;;590.43;;
4043;SDS011;2036;51.578;7.108;2022-09-09T12:41:26;614.47;;;567.97;;
4043;SDS011;2036;51.578;7.108;2022-09-09T12:44:03;570.37;;;528.10;;
4043;SDS011;2036;51.578;7.108;2022-09-09T12:46:34;578.93;;;536.50;;
4043;SDS011;2036;51.578;7.108;2022-09-09T12:49:05;613.73;;;569.50;;
4043;SDS011;2036;51.578;7.108;2022-09-09T12:51:52;622.83;;;577.17;;
4043;SDS011;2036;51.578;7.108;2022-09-09T12:54:18;620.37;;;575.17;;
4043;SDS011;2036;51.578;7.108;2022-09-09T12:56:45;623.07;;;577.20;;
4043;SDS011;2036;51.578;7.108;2022-09-09T12:59:46;538.83;;;498.33;;
4043;SDS011;2036;51.578;7.108;2022-09-09T13:02:24;657.37;;;610.57;;
4043;SDS011;2036;51.578;7.108;2022-09-09T13:04:51;583.77;;;539.57;;
4043;SDS011;2036;51.578;7.108;2022-09-09T13:07:20;461.17;;;426.73;;
4043;SDS011;2036;51.578;7.108;2022-09-09T13:09:47;516.87;;;478.17;;
4043;SDS011;2036;51.578;7.108;2022-09-09T13:12:15;529.00;;;489.13;;
4043;SDS011;2036;51.578;7.108;2022-09-09T13:14:45;504.00;;;466.60;;
4043;SDS011;2036;51.578;7.108;2022-09-09T13:17:21;730.63;;;678.03;;
4043;SDS011;2036;51.578;7.108;2022-09-09T13:19:51;681.10;;;630.40;;
4043;SDS011;2036;51.578;7.108;2022-09-09T13:27:37;565.93;;;520.33;;
4043;SDS011;2036;51.578;7.108;2022-09-09T13:30:26;554.07;;;508.60;;
4043;SDS011;2036;51.578;7.108;2022-09-09T13:33:05;608.17;;;557.53;;
4043;SDS011;2036;51.578;7.108;2022-09-09T13:35:34;773.07;;;714.53;;
4043;SDS011;2036;51.578;7.108;2022-09-09T13:38:15;560.03;;;512.83;;
4043;SDS011;2036;51.578;7.108;2022-09-09T13:40:52;613.63;;;564.33;;
4043;SDS011;2036;51.578;7.108;2022-09-09T13:43:24;681.63;;;628.67;;
4043;SDS011;2036;51.578;7.108;2022-09-09T13:45:52;645.17;;;593.17;;
4043;SDS011;2036;51.578;7.108;2022-09-09T13:48:27;744.03;;;686.33;;
4043;SDS011;2036;51.578;7.108;2022-09-09T13:50:59;680.23;;;627.33;;
4043;SDS011;2036;51.578;7.108;2022-09-09T13:53:30;712.70;;;657.57;;
4043;SDS011;2036;51.578;7.108;2022-09-09T13:55:56;724.00;;;667.97;;
4043;SDS011;2036;51.578;7.108;2022-09-09T13:58:24;741.63;;;685.33;;
4043;SDS011;2036;51.578;7.108;2022-09-09T14:00:53;708.53;;;654.03;;
4043;SDS011;2036;51.578;7.108;2022-09-09T14:03:19;667.47;;;614.13;;
4043;SDS011;2036;51.578;7.108;2022-09-09T14:05:46;665.87;;;612.47;;
4043;SDS011;2036;51.578;7.108;2022-09-09T14:08:15;681.17;;;628.37;;
4043;SDS011;2036;51.578;7.108;2022-09-09T14:10:47;694.23;;;640.53;;
4043;SDS011;2036;51.578;7.108;2022-09-09T14:13:13;728.80;;;673.07;;
4043;SDS011;2036;51.578;7.108;2022-09-09T14:15:39;703.90;;;648.40;;
4043;SDS011;2036;51.578;7.108;2022-09-09T14:18:05;695.30;;;641.40;;
4043;SDS011;2036;51.578;7.108;2022-09-09T14:20:34;725.83;;;669.77;;
4043;SDS011;2036;51.578;7.108;2022-09-09T14:22:59;774.77;;;716.63;;
4043;SDS011;2036;51.578;7.108;2022-09-09T14:25:25;767.93;;;711.17;;
4043;SDS011;2036;51.578;7.108;2022-09-09T14:27:52;755.30;;;698.13;;
4043;SDS011;2036;51.578;7.108;2022-09-09T14:30:18;775.70;;;718.57;;
4043;SDS011;2036;51.578;7.108;2022-09-09T14:32:43;765.47;;;708.50;;
4043;SDS011;2036;51.578;7.108;2022-09-09T14:35:09;740.97;;;685.43;;
4043;SDS011;2036;51.578;7.108;2022-09-09T14:37:35;763.10;;;707.30;;
4043;SDS011;2036;51.578;7.108;2022-09-09T14:40:01;746.70;;;690.80;;
4043;SDS011;2036;51.578;7.108;2022-09-09T14:42:27;743.10;;;687.23;;
4043;SDS011;2036;51.578;7.108;2022-09-09T14:44:54;751.57;;;695.77;;
4043;SDS011;2036;51.578;7.108;2022-09-09T14:47:20;704.17;;;649.63;;
4043;SDS011;2036;51.578;7.108;2022-09-09T14:49:46;736.23;;;682.23;;
4043;SDS011;2036;51.578;7.108;2022-09-09T14:52:14;746.97;;;691.97;;
4043;SDS011;2036;51.578;7.108;2022-09-09T14:54:41;718.43;;;665.00;;
4043;SDS011;2036;51.578;7.108;2022-09-09T14:57:06;720.17;;;665.43;;
4043;SDS011;2036;51.578;7.108;2022-09-09T14:59:32;727.63;;;672.63;;
4043;SDS011;2036;51.578;7.108;2022-09-09T15:01:59;693.90;;;638.77;;
4043;SDS011;2036;51.578;7.108;2022-09-09T15:04:29;673.07;;;618.67;;
4043;SDS011;2036;51.578;7.108;2022-09-09T15:06:54;769.13;;;711.23;;
4043;SDS011;2036;51.578;7.108;2022-09-09T15:09:20;665.57;;;613.17;;
4043;SDS011;2036;51.578;7.108;2022-09-09T15:11:46;766.17;;;709.07;;
4043;SDS011;2036;51.578;7.108;2022-09-09T15:14:12;770.00;;;711.27;;
4043;SDS011;2036;51.578;7.108;2022-09-09T15:16:38;668.27;;;616.43;;
4043;SDS011;2036;51.578;7.108;2022-09-09T15:19:04;331.93;;;303.43;;
4043;SDS011;2036;51.578;7.108;2022-09-09T15:21:31;304.90;;;276.53;;
4043;SDS011;2036;51.578;7.108;2022-09-09T15:24:00;318.03;;;289.17;;
4043;SDS011;2036;51.578;7.108;2022-09-09T15:26:27;333.87;;;305.27;;
4043;SDS011;2036;51.578;7.108;2022-09-09T15:28:54;315.47;;;287.57;;
4043;SDS011;2036;51.578;7.108;2022-09-09T15:31:25;272.60;;;246.93;;
4043;SDS011;2036;51.578;7.108;2022-09-09T15:33:56;306.60;;;278.93;;
4043;SDS011;2036;51.578;7.108;2022-09-09T15:39:01;235.53;;;212.53;;
4043;SDS011;2036;51.578;7.108;2022-09-09T15:41:29;218.93;;;195.43;;
4043;SDS011;2036;51.578;7.108;2022-09-09T15:43:58;221.93;;;198.70;;
4043;SDS011;2036;51.578;7.108;2022-09-09T15:46:29;256.20;;;230.60;;
4043;SDS011;2036;51.578;7.108;2022-09-09T15:49:03;247.43;;;223.33;;
4043;SDS011;2036;51.578;7.108;2022-09-09T15:51:37;287.27;;;260.10;;
4043;SDS011;2036;51.578;7.108;2022-09-09T15:54:05;293.43;;;266.93;;
4043;SDS011;2036;51.578;7.108;2022-09-09T15:56:31;346.03;;;315.87;;
4043;SDS011;2036;51.578;7.108;2022-09-09T15:58:58;455.97;;;419.30;;
4043;SDS011;2036;51.578;7.108;2022-09-09T16:01:26;386.80;;;355.53;;
4043;SDS011;2036;51.578;7.108;2022-09-09T16:03:56;401.13;;;368.80;;
4043;SDS011;2036;51.578;7.108;2022-09-09T16:06:24;384.17;;;352.73;;
4043;SDS011;2036;51.578;7.108;2022-09-09T16:08:52;371.03;;;340.40;;
4043;SDS011;2036;51.578;7.108;2022-09-09T16:11:20;416.10;;;382.03;;
4043;SDS011;2036;51.578;7.108;2022-09-09T16:13:54;443.67;;;408.17;;
4043;SDS011;2036;51.578;7.108;2022-09-09T16:16:21;421.50;;;388.30;;
4043;SDS011;2036;51.578;7.108;2022-09-09T16:18:52;389.07;;;355.90;;
4043;SDS011;2036;51.578;7.108;2022-09-09T16:23:59;418.47;;;384.20;;
4043;SDS011;2036;51.578;7.108;2022-09-09T16:26:28;500.00;;;459.97;;
4043;SDS011;2036;51.578;7.108;2022-09-09T16:28:56;531.63;;;490.00;;
4043;SDS011;2036;51.578;7.108;2022-09-09T16:31:31;529.27;;;488.03;;
4043;SDS011;2036;51.578;7.108;2022-09-09T16:33:57;457.63;;;420.57;;
4043;SDS011;2036;51.578;7.108;2022-09-09T16:36:24;540.10;;;497.90;;
4043;SDS011;2036;51.578;7.108;2022-09-09T16:38:53;444.60;;;409.47;;
4043;SDS011;2036;51.578;7.108;2022-09-09T16:41:37;485.70;;;447.47;;
4043;SDS011;2036;51.578;7.108;2022-09-09T16:44:06;474.63;;;437.50;;
4043;SDS011;2036;51.578;7.108;2022-09-09T16:46:35;478.70;;;441.10;;
4043;SDS011;2036;51.578;7.108;2022-09-09T16:49:06;494.97;;;455.97;;
4043;SDS011;2036;51.578;7.108;2022-09-09T16:51:47;499.87;;;460.10;;
4043;SDS011;2036;51.578;7.108;2022-09-09T16:54:18;574.33;;;530.63;;
4043;SDS011;2036;51.578;7.108;2022-09-09T16:56:47;548.37;;;506.43;;
4043;SDS011;2036;51.578;7.108;2022-09-09T16:59:17;496.07;;;457.20;;
4043;SDS011;2036;51.578;7.108;2022-09-09T17:01:45;629.73;;;582.63;;
4043;SDS011;2036;51.578;7.108;2022-09-09T17:04:18;452.67;;;417.37;;
4043;SDS011;2036;51.578;7.108;2022-09-09T17:06:51;580.40;;;537.17;;
4043;SDS011;2036;51.578;7.108;2022-09-09T17:09:19;570.10;;;526.70;;
4043;SDS011;2036;51.578;7.108;2022-09-09T17:11:46;595.07;;;550.03;;
4043;SDS011;2036;51.578;7.108;2022-09-09T17:14:15;487.50;;;448.47;;
4043;SDS011;2036;51.578;7.108;2022-09-09T17:16:43;491.30;;;452.73;;
4043;SDS011;2036;51.578;7.108;2022-09-09T17:19:10;539.10;;;497.10;;
4043;SDS011;2036;51.578;7.108;2022-09-09T17:21:37;569.20;;;526.50;;
4043;SDS011;2036;51.578;7.108;2022-09-09T17:24:04;659.90;;;611.47;;
4043;SDS011;2036;51.578;7.108;2022-09-09T17:26:31;619.50;;;572.97;;
4043;SDS011;2036;51.578;7.108;2022-09-09T17:28:59;585.37;;;541.40;;
4043;SDS011;2036;51.578;7.108;2022-09-09T17:31:29;598.73;;;553.70;;
4043;SDS011;2036;51.578;7.108;2022-09-09T17:33:57;546.47;;;503.33;;
4043;SDS011;2036;51.578;7.108;2022-09-09T17:36:31;594.53;;;549.47;;